APL Coral — WDF6832 — position and weather

sailwx.info

Track history (hours):
 
Tides and Currents Weather Stations Pressure Air Temp Water Temp Dewpoint Dewpoint Depression Visibility Wind Speed Wind Dir Waves Ship Positions

APL Coral

Owner: APL Maritime Ltd., Bethesda, MD. More information available from US FCC via Universal Licensing System and Coast Guard Vessel Documentation Center.

Last reported at 2016-May-01 09:14 UTC. Time now 2016-May-01 23:14 UTC.
Position N 22°21' E 114°02'.

Length 275 m; draft 12.7 m.

Type: Cargo ship. MMSI: 367478280.

Date/timePositionNaut miles runAvg speedWind from/ knotsBaromVisibWave heightAir tempDewpointWater temp
2016-May-01 09:14N 22°21' E 114°02'2010.8
2016-May-01 07:23N 22°08' E 114°18'10 1.4
2016-May-01 00:05N 22°06' E 114°29'29616.7
2016-Apr-30 06:21N 24°22' E 119°16'3816.4
2016-Apr-30 04:03N 24°49' E 119°44'2516.6
2016-Apr-30 02:33N 25°06' E 120°04'28016.4
2016-Apr-29 09:28N 29°14' E 122°31'1617.6
2016-Apr-29 08:32N 29°30' E 122°31'1313.0
2016-Apr-29 07:32N 29°42' E 122°26'4 3.8
2016-Apr-29 06:32N 29°43' E 122°22'10 9.9
2016-Apr-29 05:33N 29°50' E 122°13'1110.7
2016-Apr-29 04:33N 29°55' E 122°02'1010.3
2016-Apr-29 03:33N 29°57' E 121°51'1 0.5
2016-Apr-29 02:31N 29°57' E 121°50'0 0.0
2016-Apr-28 23:31N 29°57' E 121°50'0 0.0
2016-Apr-28 22:31N 29°57' E 121°50'0 0.0
2016-Apr-28 21:32N 29°57' E 121°50'0 0.0
2016-Apr-28 20:33N 29°57' E 121°50'0 0.0
2016-Apr-28 19:33N 29°57' E 121°50'0 0.0
2016-Apr-28 18:33N 29°57' E 121°50'0 0.0
2016-Apr-28 17:33N 29°57' E 121°50'0 0.0
2016-Apr-28 16:33N 29°57' E 121°50'0 0.0
2016-Apr-28 15:32N 29°57' E 121°50'0 0.0
2016-Apr-28 14:33N 29°57' E 121°50'6 6.1
2016-Apr-28 13:33N 29°58' E 121°57'1212.0
2016-Apr-28 12:33N 29°55' E 122°10'1111.1
2016-Apr-28 11:33N 29°46' E 122°18'1010.4
2016-Apr-28 10:33N 29°42' E 122°29'4 4.3
2016-Apr-28 09:33N 29°44' E 122°25'6 6.3
2016-Apr-28 08:33N 29°44' E 122°32'0 0.0
2016-Apr-27 22:29N 29°44' E 122°32'0 0.0
2016-Apr-27 21:33N 29°44' E 122°32'0 0.1
2016-Apr-27 20:33N 29°44' E 122°32'0 0.0
2016-Apr-27 19:33N 29°44' E 122°32'0 0.1
2016-Apr-27 18:30N 29°44' E 122°33'0 0.1
2016-Apr-27 17:21N 29°44' E 122°32'0 0.0
2016-Apr-27 16:32N 29°44' E 122°32'0 0.2
2016-Apr-27 15:31N 29°44' E 122°32'0 0.0
2016-Apr-27 09:06N 29°44' E 122°33'0 0.0
2016-Apr-27 08:31N 29°44' E 122°33'0 0.1
2016-Apr-27 07:31N 29°44' E 122°33'6 6.5
2016-Apr-27 06:33N 29°48' E 122°38'4615.0
2016-Apr-27 03:31N 30°30' E 122°58'1817.7
2016-Apr-27 02:29N 30°48' E 122°54'5412.7
2016-Apr-26 22:14N 31°15' E 121°59'1015.3
2016-Apr-26 21:33N 31°18' E 121°47'1211.6
2016-Apr-26 20:33N 31°23' E 121°35'0 0.2
2016-Apr-26 19:29N 31°22' E 121°35'0 0.0
2016-Apr-26 18:32N 31°22' E 121°35'0 0.1
2016-Apr-26 17:32N 31°22' E 121°35'0 0.1
2016-Apr-26 16:32N 31°22' E 121°35'0 0.0
2016-Apr-26 15:32N 31°22' E 121°35'0 0.0
2016-Apr-26 14:32N 31°22' E 121°35'0 0.0
2016-Apr-26 13:32N 31°22' E 121°35'0 0.0
2016-Apr-26 12:32N 31°22' E 121°35'0 0.0
2016-Apr-26 11:33N 31°22' E 121°35'0 0.0
2016-Apr-26 10:33N 31°22' E 121°35'0 0.0
2016-Apr-26 09:33N 31°22' E 121°35'0 0.1
2016-Apr-26 08:34N 31°23' E 121°35'2 2.0
2016-Apr-26 07:34N 31°22' E 121°37'0 0.3
2016-Apr-26 06:28N 31°23' E 121°38'0 0.0
2016-Apr-26 05:16N 31°23' E 121°38'0 0.0
2016-Apr-26 04:30N 31°23' E 121°38'0 0.2
2016-Apr-26 03:33N 31°22' E 121°38'0 0.1
2016-Apr-26 02:33N 31°22' E 121°38'0 0.0
2016-Apr-26 01:30N 31°22' E 121°38'0 0.0
2016-Apr-26 00:30N 31°22' E 121°38'0 0.1
2016-Apr-25 23:24N 31°22' E 121°38'0 0.0
2016-Apr-25 22:33N 31°22' E 121°38'0 0.0
2016-Apr-25 21:33N 31°22' E 121°38'0 0.3
2016-Apr-25 20:33N 31°22' E 121°37'0 0.1
2016-Apr-25 19:33N 31°22' E 121°38'2 1.8
2016-Apr-25 18:33N 31°23' E 121°35'3 3.5
2016-Apr-25 17:33N 31°21' E 121°39'9 9.1
2016-Apr-25 16:33N 31°17' E 121°49'1110.9
2016-Apr-25 15:33N 31°15' E 122°01'24 9.7
2016-Apr-25 13:06N 31°07' E 122°27'9 1.6
2016-Apr-25 07:30N 31°12' E 122°36'0 0.0
2016-Apr-24 21:30N 31°12' E 122°36'0 0.0
2016-Apr-24 20:33N 31°12' E 122°36'0 0.1
2016-Apr-24 19:32N 31°12' E 122°36'2 2.5
2016-Apr-24 18:33N 31°14' E 122°37'2914.1
2016-Apr-24 16:31N 31°43' E 122°36'1616.0
2016-Apr-24 15:30N 31°59' E 122°41'1617.0
2016-Apr-24 14:32N 32°14' E 122°48'1918.0
2016-Apr-24 13:30N 32°32' E 122°55'  
2016-Apr-21 11:05N 30°37' E 123°50'1116.9
2016-Apr-21 10:25N 30°26' E 123°46'  
Track history (hours):
 
Tides and Currents Weather Stations Pressure Air Temp Water Temp Dewpoint Dewpoint Depression Visibility Wind Speed Wind Dir Waves Ship Positions

APL Coral

Owner: APL Maritime Ltd., Bethesda, MD. More information available from US FCC via Universal Licensing System and Coast Guard Vessel Documentation Center.

Last reported at 2016-May-01 09:14 UTC. Time now 2016-May-01 23:14 UTC.
Position N 22°21' E 114°02'.

Length 275 m; draft 12.7 m.

Type: Cargo ship. MMSI: 367478280.

Date/timePositionNaut miles runAvg speedWind from/ knotsBaromVisibWave heightAir tempDewpointWater temp
2016-May-01 09:14N 22°21' E 114°02'2010.8
2016-May-01 07:23N 22°08' E 114°18'10 1.4
2016-May-01 00:05N 22°06' E 114°29'29616.7
2016-Apr-30 06:21N 24°22' E 119°16'3816.4
2016-Apr-30 04:03N 24°49' E 119°44'2516.6
2016-Apr-30 02:33N 25°06' E 120°04'28016.4
2016-Apr-29 09:28N 29°14' E 122°31'1617.6
2016-Apr-29 08:32N 29°30' E 122°31'1313.0
2016-Apr-29 07:32N 29°42' E 122°26'4 3.8
2016-Apr-29 06:32N 29°43' E 122°22'10 9.9
2016-Apr-29 05:33N 29°50' E 122°13'1110.7
2016-Apr-29 04:33N 29°55' E 122°02'1010.3
2016-Apr-29 03:33N 29°57' E 121°51'1 0.5
2016-Apr-29 02:31N 29°57' E 121°50'0 0.0
2016-Apr-28 23:31N 29°57' E 121°50'0 0.0
2016-Apr-28 22:31N 29°57' E 121°50'0 0.0
2016-Apr-28 21:32N 29°57' E 121°50'0 0.0
2016-Apr-28 20:33N 29°57' E 121°50'0 0.0
2016-Apr-28 19:33N 29°57' E 121°50'0 0.0
2016-Apr-28 18:33N 29°57' E 121°50'0 0.0
2016-Apr-28 17:33N 29°57' E 121°50'0 0.0
2016-Apr-28 16:33N 29°57' E 121°50'0 0.0
2016-Apr-28 15:32N 29°57' E 121°50'0 0.0
2016-Apr-28 14:33N 29°57' E 121°50'6 6.1
2016-Apr-28 13:33N 29°58' E 121°57'1212.0
2016-Apr-28 12:33N 29°55' E 122°10'1111.1
2016-Apr-28 11:33N 29°46' E 122°18'1010.4
2016-Apr-28 10:33N 29°42' E 122°29'4 4.3
2016-Apr-28 09:33N 29°44' E 122°25'6 6.3
2016-Apr-28 08:33N 29°44' E 122°32'0 0.0
2016-Apr-27 22:29N 29°44' E 122°32'0 0.0
2016-Apr-27 21:33N 29°44' E 122°32'0 0.1
2016-Apr-27 20:33N 29°44' E 122°32'0 0.0
2016-Apr-27 19:33N 29°44' E 122°32'0 0.1
2016-Apr-27 18:30N 29°44' E 122°33'0 0.1
2016-Apr-27 17:21N 29°44' E 122°32'0 0.0
2016-Apr-27 16:32N 29°44' E 122°32'0 0.2
2016-Apr-27 15:31N 29°44' E 122°32'0 0.0
2016-Apr-27 09:06N 29°44' E 122°33'0 0.0
2016-Apr-27 08:31N 29°44' E 122°33'0 0.1
2016-Apr-27 07:31N 29°44' E 122°33'6 6.5
2016-Apr-27 06:33N 29°48' E 122°38'4615.0
2016-Apr-27 03:31N 30°30' E 122°58'1817.7
2016-Apr-27 02:29N 30°48' E 122°54'5412.7
2016-Apr-26 22:14N 31°15' E 121°59'1015.3
2016-Apr-26 21:33N 31°18' E 121°47'1211.6
2016-Apr-26 20:33N 31°23' E 121°35'0 0.2
2016-Apr-26 19:29N 31°22' E 121°35'0 0.0
2016-Apr-26 18:32N 31°22' E 121°35'0 0.1
2016-Apr-26 17:32N 31°22' E 121°35'0 0.1
2016-Apr-26 16:32N 31°22' E 121°35'0 0.0
2016-Apr-26 15:32N 31°22' E 121°35'0 0.0
2016-Apr-26 14:32N 31°22' E 121°35'0 0.0
2016-Apr-26 13:32N 31°22' E 121°35'0 0.0
2016-Apr-26 12:32N 31°22' E 121°35'0 0.0
2016-Apr-26 11:33N 31°22' E 121°35'0 0.0
2016-Apr-26 10:33N 31°22' E 121°35'0 0.0
2016-Apr-26 09:33N 31°22' E 121°35'0 0.1
2016-Apr-26 08:34N 31°23' E 121°35'2 2.0
2016-Apr-26 07:34N 31°22' E 121°37'0 0.3
2016-Apr-26 06:28N 31°23' E 121°38'0 0.0
2016-Apr-26 05:16N 31°23' E 121°38'0 0.0
2016-Apr-26 04:30N 31°23' E 121°38'0 0.2
2016-Apr-26 03:33N 31°22' E 121°38'0 0.1
2016-Apr-26 02:33N 31°22' E 121°38'0 0.0
2016-Apr-26 01:30N 31°22' E 121°38'0 0.0
2016-Apr-26 00:30N 31°22' E 121°38'0 0.1
2016-Apr-25 23:24N 31°22' E 121°38'0 0.0
2016-Apr-25 22:33N 31°22' E 121°38'0 0.0
2016-Apr-25 21:33N 31°22' E 121°38'0 0.3
2016-Apr-25 20:33N 31°22' E 121°37'0 0.1
2016-Apr-25 19:33N 31°22' E 121°38'2 1.8
2016-Apr-25 18:33N 31°23' E 121°35'3 3.5
2016-Apr-25 17:33N 31°21' E 121°39'9 9.1
2016-Apr-25 16:33N 31°17' E 121°49'1110.9
2016-Apr-25 15:33N 31°15' E 122°01'24 9.7
2016-Apr-25 13:06N 31°07' E 122°27'9 1.6
2016-Apr-25 07:30N 31°12' E 122°36'0 0.0
2016-Apr-24 21:30N 31°12' E 122°36'0 0.0
2016-Apr-24 20:33N 31°12' E 122°36'0 0.1
2016-Apr-24 19:32N 31°12' E 122°36'2 2.5
2016-Apr-24 18:33N 31°14' E 122°37'2914.1
2016-Apr-24 16:31N 31°43' E 122°36'1616.0
2016-Apr-24 15:30N 31°59' E 122°41'1617.0
2016-Apr-24 14:32N 32°14' E 122°48'1918.0
2016-Apr-24 13:30N 32°32' E 122°55'  
2016-Apr-21 11:05N 30°37' E 123°50'1116.9
2016-Apr-21 10:25N 30°26' E 123°46'  

Dump ship's entire track history